createdAt,value
2019-01-30T00:01:21.220Z,1.60
2019-01-30T00:03:54.484Z,1.60
2019-01-30T00:06:25.991Z,1.43
2019-01-30T00:08:59.571Z,1.50
2019-01-30T00:11:31.102Z,1.50
2019-01-30T00:14:04.325Z,1.50
2019-01-30T00:16:35.767Z,2.10
2019-01-30T00:19:09.170Z,1.73
2019-01-30T00:21:41.491Z,1.60
2019-01-30T00:24:13.675Z,1.80
2019-01-30T00:26:46.139Z,2.23
2019-01-30T00:29:18.252Z,1.60
2019-01-30T00:31:50.582Z,1.63
2019-01-30T00:34:22.856Z,1.70
2019-01-30T00:36:54.088Z,1.80
2019-01-30T00:39:27.400Z,1.83
2019-01-30T00:42:02.205Z,1.20
2019-01-30T00:44:35.899Z,1.70
2019-01-30T00:47:15.754Z,2.03
2019-01-30T00:49:42.113Z,2.50
2019-01-30T00:52:13.588Z,2.20
2019-01-30T00:54:46.746Z,1.90
2019-01-30T00:57:18.099Z,2.30
2019-01-30T00:59:51.408Z,2.00
2019-01-30T01:02:22.805Z,2.17
2019-01-30T01:04:56.274Z,1.63
2019-01-30T01:07:27.470Z,2.20
2019-01-30T01:10:00.958Z,2.20
2019-01-30T01:12:32.241Z,1.83
2019-01-30T01:15:06.435Z,1.60
2019-01-30T01:17:37.689Z,2.10
2019-01-30T01:20:11.786Z,2.23
2019-01-30T01:22:42.923Z,2.00
2019-01-30T01:25:16.602Z,2.13
2019-01-30T01:27:47.979Z,1.67
2019-01-30T01:30:25.423Z,2.10
2019-01-30T01:32:54.967Z,1.87
2019-01-30T01:35:28.358Z,2.10
2019-01-30T01:37:59.615Z,1.87
2019-01-30T01:40:34.331Z,2.13
2019-01-30T01:43:08.677Z,2.23
2019-01-30T01:45:42.860Z,2.43
2019-01-30T01:48:14.220Z,2.20
2019-01-30T01:50:47.775Z,1.87
2019-01-30T01:53:19.474Z,1.97
2019-01-30T01:55:52.782Z,2.40
2019-01-30T01:58:24.020Z,2.23
2019-01-30T02:00:57.497Z,2.40
2019-01-30T02:03:28.796Z,2.50
2019-01-30T02:06:02.165Z,2.10
2019-01-30T02:08:34.520Z,2.20
2019-01-30T02:11:08.131Z,2.20
2019-01-30T02:13:39.701Z,1.97
2019-01-30T02:16:14.374Z,2.60
2019-01-30T02:18:45.646Z,2.10
2019-01-30T02:21:19.018Z,2.30
2019-01-30T02:23:50.582Z,2.33
2019-01-30T02:26:24.099Z,2.30
2019-01-30T02:28:55.203Z,2.30
2019-01-30T02:31:28.614Z,2.63
2019-01-30T02:33:59.783Z,2.67
2019-01-30T02:36:34.768Z,2.23
2019-01-30T02:39:08.405Z,3.20
2019-01-30T02:41:42.869Z,2.10
2019-01-30T02:44:17.245Z,2.80
2019-01-30T02:46:50.609Z,2.77
2019-01-30T02:49:21.789Z,2.43
2019-01-30T02:51:54.986Z,2.60
2019-01-30T02:54:26.106Z,2.27
2019-01-30T02:56:59.382Z,2.27
2019-01-30T02:59:30.860Z,2.60
2019-01-30T03:02:20.147Z,2.30
2019-01-30T03:04:51.330Z,3.23
2019-01-30T03:07:24.944Z,2.90
2019-01-30T03:09:56.018Z,3.10
2019-01-30T03:12:29.348Z,2.80
2019-01-30T03:15:00.559Z,3.47
2019-01-30T03:17:34.335Z,2.97
2019-01-30T03:20:06.104Z,2.30
2019-01-30T03:22:41.601Z,2.70
2019-01-30T03:25:16.206Z,2.93
2019-01-30T03:27:49.476Z,2.83
2019-01-30T03:30:24.419Z,2.30
2019-01-30T03:32:57.704Z,2.40
2019-01-30T03:35:28.950Z,3.00
2019-01-30T03:38:02.231Z,2.60
2019-01-30T03:40:33.595Z,2.57
2019-01-30T03:43:06.870Z,2.80
2019-01-30T03:45:38.263Z,2.80
2019-01-30T03:48:11.516Z,3.00
2019-01-30T03:50:42.701Z,3.50
2019-01-30T03:53:16.286Z,2.93
2019-01-30T03:55:47.767Z,3.27
2019-01-30T03:58:21.330Z,3.83
2019-01-30T04:00:52.666Z,4.17
2019-01-30T04:03:26.206Z,4.53
2019-01-30T04:05:57.736Z,7.63
2019-01-30T04:08:31.338Z,7.80
2019-01-30T04:11:02.672Z,11.63
2019-01-30T04:13:36.117Z,11.03
2019-01-30T04:16:07.753Z,11.13
2019-01-30T04:18:41.214Z,15.87
2019-01-30T04:21:13.776Z,15.93
2019-01-30T04:23:45.986Z,14.73
2019-01-30T04:26:18.239Z,13.07
2019-01-30T04:28:50.433Z,15.70
2019-01-30T04:31:22.603Z,18.83
2019-01-30T04:33:54.789Z,16.73
2019-01-30T04:36:27.191Z,16.47
2019-01-30T04:38:59.432Z,16.37
2019-01-30T04:41:32.919Z,17.97
2019-01-30T04:44:06.477Z,22.10
2019-01-30T04:46:37.920Z,21.80
2019-01-30T04:49:11.302Z,24.07
2019-01-30T04:51:42.581Z,21.87
2019-01-30T04:54:15.976Z,22.80
2019-01-30T04:56:47.470Z,20.97
2019-01-30T04:59:20.977Z,18.20
2019-01-30T05:01:52.207Z,15.77
2019-01-30T05:04:25.732Z,11.97
2019-01-30T05:06:57.337Z,10.40
2019-01-30T05:09:30.916Z,8.13
2019-01-30T05:12:02.327Z,6.47
2019-01-30T05:14:37.133Z,5.00
2019-01-30T05:17:08.457Z,6.00
2019-01-30T05:19:41.796Z,5.47
2019-01-30T05:22:14.124Z,6.50
2019-01-30T05:24:46.503Z,6.50
2019-01-30T05:27:19.895Z,5.93
2019-01-30T05:29:52.313Z,7.23
2019-01-30T05:32:24.669Z,6.83
2019-01-30T05:34:57.194Z,7.70
2019-01-30T05:37:29.562Z,5.43
2019-01-30T05:40:01.973Z,6.57
2019-01-30T05:42:35.608Z,7.60
2019-01-30T05:45:09.598Z,7.43
2019-01-30T05:47:40.965Z,6.60
2019-01-30T05:50:14.643Z,7.93
2019-01-30T05:53:04.788Z,7.47
2019-01-30T05:55:37.956Z,9.30
2019-01-30T05:58:09.434Z,11.63
2019-01-30T06:00:43.841Z,12.27
2019-01-30T06:03:15.089Z,11.20
2019-01-30T06:05:48.684Z,10.80
2019-01-30T06:08:20.139Z,9.17
2019-01-30T06:10:53.348Z,10.00
2019-01-30T06:13:24.768Z,9.60
2019-01-30T06:15:58.118Z,11.23
2019-01-30T06:18:29.215Z,8.63
2019-01-30T06:21:02.625Z,7.30
2019-01-30T06:23:35.139Z,7.47
2019-01-30T06:26:07.339Z,7.57
2019-01-30T06:28:39.741Z,8.03
2019-01-30T06:31:11.908Z,6.87
2019-01-30T06:33:44.374Z,6.37
2019-01-30T06:36:16.662Z,6.90
2019-01-30T06:38:49.173Z,6.93
2019-01-30T06:41:21.771Z,7.30
2019-01-30T06:43:53.116Z,7.83
2019-01-30T06:46:26.341Z,10.37
2019-01-30T06:48:57.773Z,9.40
2019-01-30T06:51:31.166Z,9.73
2019-01-30T06:54:02.551Z,10.87
2019-01-30T06:56:36.086Z,10.77
2019-01-30T06:59:07.270Z,10.87
2019-01-30T07:01:40.895Z,9.40
2019-01-30T07:04:12.047Z,9.33
2019-01-30T07:06:45.302Z,8.73
2019-01-30T07:09:16.819Z,7.80
2019-01-30T07:11:50.226Z,8.87
2019-01-30T07:14:21.617Z,9.10
2019-01-30T07:16:55.186Z,8.67
2019-01-30T07:19:26.551Z,8.80
2019-01-30T07:22:00.006Z,9.30
2019-01-30T07:24:31.386Z,9.13
2019-01-30T07:27:04.946Z,9.73
2019-01-30T07:29:36.088Z,8.47
2019-01-30T07:32:09.451Z,7.83
2019-01-30T07:34:40.662Z,9.33
2019-01-30T07:37:14.245Z,8.90
2019-01-30T07:39:45.492Z,7.93
2019-01-30T07:42:19.072Z,7.43
2019-01-30T07:44:51.223Z,6.53
2019-01-30T07:47:24.480Z,6.50
2019-01-30T07:49:55.590Z,7.20
2019-01-30T07:52:28.993Z,6.53
2019-01-30T07:55:02.482Z,6.80
2019-01-30T07:57:35.629Z,6.50
2019-01-30T08:00:07.995Z,7.00
2019-01-30T08:02:41.336Z,6.20
2019-01-30T08:05:12.569Z,6.60
2019-01-30T08:07:45.890Z,7.40
2019-01-30T08:10:18.474Z,7.00
2019-01-30T08:12:52.134Z,6.70
2019-01-30T08:15:23.506Z,6.80
2019-01-30T08:17:56.823Z,6.43
2019-01-30T08:20:28.047Z,6.73
2019-01-30T08:23:01.190Z,7.60
2019-01-30T08:25:32.753Z,7.97
2019-01-30T08:28:06.421Z,91.93
2019-01-30T08:30:38.175Z,49.30
2019-01-30T08:33:11.602Z,11.80
2019-01-30T08:35:42.886Z,8.23
2019-01-30T08:38:16.469Z,7.10
2019-01-30T08:40:47.761Z,7.70
2019-01-30T08:43:21.336Z,7.73
2019-01-30T08:45:52.647Z,7.90
2019-01-30T08:48:29.803Z,9.20
2019-01-30T08:50:58.801Z,17.17
2019-01-30T08:53:32.330Z,11.67
2019-01-30T08:56:03.619Z,11.63
2019-01-30T08:58:37.214Z,9.40
2019-01-30T09:01:08.368Z,10.87
2019-01-30T09:03:41.586Z,49.03
2019-01-30T09:06:13.068Z,38.23
2019-01-30T09:08:46.701Z,12.63
2019-01-30T09:11:18.050Z,12.60
2019-01-30T09:13:51.437Z,12.53
2019-01-30T09:16:22.786Z,14.43
2019-01-30T09:18:56.160Z,24.30
2019-01-30T09:21:27.509Z,17.07
2019-01-30T09:24:01.990Z,15.40
2019-01-30T09:26:36.290Z,15.23
2019-01-30T09:29:09.560Z,15.50
2019-01-30T09:31:41.072Z,14.80
2019-01-30T09:34:14.743Z,16.57
2019-01-30T09:36:45.964Z,13.80
2019-01-30T09:39:19.338Z,13.03
2019-01-30T09:41:50.676Z,13.40
2019-01-30T09:44:24.002Z,14.80
2019-01-30T09:46:55.215Z,17.27
2019-01-30T09:49:28.523Z,46.47
2019-01-30T09:51:59.708Z,16.80
2019-01-30T09:54:33.566Z,21.10
2019-01-30T09:57:04.733Z,22.77
2019-01-30T09:59:37.973Z,19.60
2019-01-30T10:02:09.258Z,16.70
2019-01-30T10:04:42.728Z,15.80
2019-01-30T10:07:14.116Z,25.73
2019-01-30T10:09:47.351Z,27.37
2019-01-30T10:12:18.727Z,14.07
2019-01-30T10:14:52.107Z,12.07
2019-01-30T10:17:23.480Z,16.00
2019-01-30T10:19:57.015Z,13.30
2019-01-30T10:22:28.169Z,17.80
2019-01-30T10:25:01.318Z,13.40
2019-01-30T10:27:32.621Z,12.50
2019-01-30T10:30:06.852Z,11.73
2019-01-30T10:32:38.142Z,9.87
2019-01-30T10:35:11.548Z,10.20
2019-01-30T10:37:42.874Z,8.10
2019-01-30T10:40:17.246Z,8.33
2019-01-30T10:42:48.662Z,10.40
2019-01-30T10:45:22.211Z,7.40
2019-01-30T10:47:53.573Z,8.30
2019-01-30T10:50:27.446Z,12.73
2019-01-30T10:52:58.932Z,27.63
2019-01-30T10:55:32.978Z,8.73
2019-01-30T10:58:05.583Z,9.47
2019-01-30T11:00:43.540Z,12.00
2019-01-30T11:03:14.759Z,3.33
2019-01-30T11:05:48.194Z,2.30
2019-01-30T11:08:19.409Z,1.60
2019-01-30T11:10:53.909Z,2.47
2019-01-30T11:13:25.171Z,4.40
2019-01-30T11:16:01.191Z,4.57
2019-01-30T11:18:32.699Z,1.80
2019-01-30T11:21:06.315Z,1.40
2019-01-30T11:23:39.020Z,1.30
2019-01-30T11:26:11.446Z,1.60
2019-01-30T11:28:43.694Z,1.10
2019-01-30T11:31:15.985Z,1.60
2019-01-30T11:33:48.204Z,0.80
2019-01-30T11:36:20.430Z,1.60
2019-01-30T11:38:53.221Z,0.90
2019-01-30T11:41:25.825Z,1.03
2019-01-30T11:43:58.188Z,1.20
2019-01-30T11:46:30.418Z,1.00
2019-01-30T11:49:01.949Z,0.87
2019-01-30T11:51:35.533Z,1.00
2019-01-30T11:54:06.939Z,1.00
2019-01-30T11:56:40.239Z,0.90
2019-01-30T11:59:14.996Z,0.50
2019-01-30T12:01:48.243Z,0.70
2019-01-30T12:04:19.552Z,0.80
2019-01-30T12:06:52.901Z,0.73
2019-01-30T12:09:24.485Z,1.00
2019-01-30T12:11:57.737Z,0.70
2019-01-30T12:14:29.107Z,0.70
2019-01-30T12:17:02.243Z,0.80
2019-01-30T12:22:26.482Z,1.10
2019-01-30T12:24:58.884Z,0.80
2019-01-30T12:27:30.999Z,0.60
2019-01-30T12:30:03.432Z,0.70
2019-01-30T12:32:35.730Z,0.80
2019-01-30T12:35:08.613Z,0.50
2019-01-30T12:37:41.146Z,0.60
2019-01-30T12:40:14.092Z,0.60
2019-01-30T12:42:46.602Z,0.70
2019-01-30T12:45:22.914Z,3.17
2019-01-30T12:47:55.345Z,1.63
2019-01-30T12:50:26.923Z,2.27
2019-01-30T12:53:00.723Z,0.87
2019-01-30T12:55:33.320Z,1.20
2019-01-30T12:58:07.248Z,1.40
2019-01-30T13:00:39.732Z,1.33
2019-01-30T13:03:13.182Z,1.10
2019-01-30T13:05:44.651Z,0.87
2019-01-30T13:08:18.321Z,1.00
2019-01-30T13:10:49.979Z,0.80
2019-01-30T13:13:23.635Z,1.10
2019-01-30T13:15:54.999Z,0.93
2019-01-30T13:18:28.508Z,1.00
2019-01-30T13:21:02.119Z,6.73
2019-01-30T13:23:35.344Z,0.80
2019-01-30T13:26:07.311Z,0.90
2019-01-30T13:28:41.037Z,1.10
2019-01-30T13:31:12.485Z,4.70
2019-01-30T13:33:45.876Z,2.77
2019-01-30T13:36:17.099Z,1.43
2019-01-30T13:38:50.484Z,2.00
2019-01-30T13:41:21.606Z,1.57
2019-01-30T13:43:54.952Z,1.90
2019-01-30T13:46:26.368Z,4.07
2019-01-30T13:48:59.585Z,1.53
2019-01-30T13:51:30.803Z,0.80
2019-01-30T13:54:04.632Z,1.10
2019-01-30T13:56:35.879Z,0.97
2019-01-30T13:59:09.333Z,1.10
2019-01-30T14:01:40.593Z,1.00
2019-01-30T14:04:13.979Z,0.80
2019-01-30T14:06:45.391Z,1.00
2019-01-30T14:09:19.008Z,1.07
2019-01-30T14:11:50.345Z,0.70
2019-01-30T14:14:23.663Z,0.63
2019-01-30T14:16:55.866Z,1.10
2019-01-30T14:19:29.245Z,0.80
2019-01-30T14:22:00.624Z,1.30
2019-01-30T14:24:34.117Z,1.00
2019-01-30T14:27:05.362Z,0.90
2019-01-30T14:29:38.810Z,1.47
2019-01-30T14:32:09.980Z,0.93
2019-01-30T14:34:43.548Z,1.13
2019-01-30T14:37:14.931Z,1.10
2019-01-30T14:39:48.805Z,1.40
2019-01-30T14:42:19.990Z,1.93
2019-01-30T14:44:53.315Z,0.80
2019-01-30T14:47:24.523Z,0.80
2019-01-30T14:49:58.116Z,1.00
2019-01-30T14:52:29.390Z,1.30
2019-01-30T14:55:02.992Z,19.40
2019-01-30T14:57:34.734Z,0.90
2019-01-30T15:00:09.799Z,1.93
2019-01-30T15:02:41.112Z,1.10
2019-01-30T15:05:21.927Z,1.10
2019-01-30T15:07:48.042Z,1.47
2019-01-30T15:10:21.927Z,2.33
2019-01-30T15:12:53.242Z,1.80
2019-01-30T15:15:27.359Z,1.40
2019-01-30T15:17:58.604Z,1.00
2019-01-30T15:20:33.056Z,1.57
2019-01-30T15:23:04.545Z,1.70
2019-01-30T15:25:39.006Z,1.07
2019-01-30T15:28:13.540Z,1.00
2019-01-30T15:30:48.427Z,1.50
2019-01-30T15:33:19.748Z,2.20
2019-01-30T15:35:53.130Z,1.80
2019-01-30T15:38:24.541Z,1.40
2019-01-30T15:40:57.874Z,3.90
2019-01-30T15:43:29.455Z,2.40
2019-01-30T15:46:02.753Z,2.00
2019-01-30T15:48:34.129Z,1.13
2019-01-30T15:51:13.747Z,1.03
2019-01-30T15:53:46.093Z,1.00
2019-01-30T15:56:19.460Z,1.13
2019-01-30T15:58:50.770Z,1.10
2019-01-30T16:01:25.978Z,1.50
2019-01-30T16:03:57.393Z,1.40
2019-01-30T16:06:30.918Z,2.00
2019-01-30T16:09:02.487Z,1.80
2019-01-30T16:11:37.494Z,1.53
2019-01-30T16:14:09.033Z,1.43
2019-01-30T16:16:42.393Z,0.93
2019-01-30T16:19:13.809Z,1.17
2019-01-30T16:21:47.286Z,1.50
2019-01-30T16:24:18.565Z,1.50
2019-01-30T16:26:52.093Z,1.77
2019-01-30T16:29:23.612Z,1.50
2019-01-30T16:31:57.053Z,1.20
2019-01-30T16:34:28.205Z,1.10
2019-01-30T16:37:01.760Z,1.13
2019-01-30T16:39:33.141Z,1.67
2019-01-30T16:42:06.733Z,1.73
2019-01-30T16:44:37.987Z,1.10
2019-01-30T16:47:11.348Z,1.00
2019-01-30T16:49:42.638Z,1.27
2019-01-30T16:52:16.031Z,1.00
2019-01-30T16:54:47.505Z,2.93
2019-01-30T16:57:20.811Z,10.03
2019-01-30T16:59:52.288Z,3.63
2019-01-30T17:02:25.605Z,1.80
2019-01-30T17:04:57.108Z,1.63
2019-01-30T17:07:30.438Z,1.90
2019-01-30T17:10:01.670Z,1.90
2019-01-30T17:12:36.055Z,6.80
2019-01-30T17:15:08.378Z,1.50
2019-01-30T17:17:42.160Z,2.27
2019-01-30T17:20:17.783Z,1.93
2019-01-30T17:22:51.479Z,2.00
2019-01-30T17:25:22.755Z,1.90
2019-01-30T17:27:56.134Z,2.93
2019-01-30T17:30:37.900Z,1.97
2019-01-30T17:33:11.727Z,2.30
2019-01-30T17:35:43.052Z,1.73
2019-01-30T17:38:16.879Z,1.83
2019-01-30T17:40:48.413Z,2.70
2019-01-30T17:43:21.807Z,2.17
2019-01-30T17:45:53.073Z,2.00
2019-01-30T17:48:26.341Z,2.07
2019-01-30T17:50:58.054Z,1.73
2019-01-30T17:53:31.526Z,1.53
2019-01-30T17:56:02.837Z,1.30
2019-01-30T17:58:36.325Z,1.23
2019-01-30T18:01:07.810Z,1.47
2019-01-30T18:03:41.422Z,1.30
2019-01-30T18:06:13.016Z,1.83
2019-01-30T18:08:46.522Z,1.57
2019-01-30T18:11:17.857Z,1.83
2019-01-30T18:13:51.334Z,1.50
2019-01-30T18:16:22.591Z,1.67
2019-01-30T18:18:55.894Z,1.57
2019-01-30T18:21:27.388Z,1.40
2019-01-30T18:24:00.727Z,1.43
2019-01-30T18:26:33.114Z,1.67
2019-01-30T18:29:06.194Z,1.60
2019-01-30T18:31:38.645Z,1.50
2019-01-30T18:34:10.807Z,1.50
2019-01-30T18:36:43.179Z,1.50
2019-01-30T18:39:15.389Z,1.73
2019-01-30T18:41:48.107Z,1.83
2019-01-30T18:44:20.305Z,2.03
2019-01-30T18:46:52.746Z,1.57
2019-01-30T18:49:25.137Z,2.07
2019-01-30T18:51:57.774Z,1.60
2019-01-30T18:54:30.499Z,1.28
2019-01-30T18:57:02.254Z,1.17
2019-01-30T18:59:35.613Z,1.37
2019-01-30T19:02:06.989Z,1.83
2019-01-30T19:04:40.549Z,1.50
2019-01-30T19:07:11.869Z,1.87
2019-01-30T19:09:45.376Z,4.00
2019-01-30T19:12:16.660Z,2.50
2019-01-30T19:14:50.066Z,3.90
2019-01-30T19:17:21.457Z,3.73
2019-01-30T19:19:54.801Z,4.67
2019-01-30T19:22:27.295Z,3.87
2019-01-30T19:25:02.299Z,3.97
2019-01-30T19:27:34.607Z,4.80
2019-01-30T19:30:09.516Z,3.50
2019-01-30T19:32:40.955Z,4.20
2019-01-30T19:35:14.543Z,6.10
2019-01-30T19:37:46.121Z,4.20
2019-01-30T19:40:19.706Z,5.90
2019-01-30T19:42:51.101Z,7.60
2019-01-30T19:45:25.145Z,14.10
2019-01-30T19:47:56.586Z,16.80
2019-01-30T19:50:30.760Z,14.33
2019-01-30T19:53:05.269Z,13.77
2019-01-30T19:55:37.311Z,13.20
2019-01-30T19:58:08.776Z,15.33
2019-01-30T20:00:44.236Z,13.87
2019-01-30T20:03:20.465Z,15.90
2019-01-30T20:05:53.931Z,15.07
2019-01-30T20:08:25.288Z,14.20
2019-01-30T20:10:59.157Z,13.20
2019-01-30T20:13:30.798Z,8.90
2019-01-30T20:16:04.413Z,11.37
2019-01-30T20:18:35.877Z,8.13
2019-01-30T20:21:09.487Z,6.30
2019-01-30T20:23:41.101Z,7.17
2019-01-30T20:26:15.625Z,5.60
2019-01-30T20:28:47.983Z,5.77
2019-01-30T20:31:21.373Z,6.40
2019-01-30T20:33:52.598Z,5.80
2019-01-30T20:36:25.896Z,5.90
2019-01-30T20:38:57.245Z,4.90
2019-01-30T20:41:30.918Z,3.67
2019-01-30T20:44:02.383Z,4.00
2019-01-30T20:46:36.086Z,4.37
2019-01-30T20:49:07.208Z,4.20
2019-01-30T20:51:40.749Z,4.70
2019-01-30T20:54:12.131Z,4.63
2019-01-30T20:56:45.434Z,4.20
2019-01-30T20:59:16.934Z,6.90
2019-01-30T21:01:50.225Z,6.10
2019-01-30T21:04:21.503Z,5.83
2019-01-30T21:06:54.980Z,10.27
2019-01-30T21:09:26.636Z,6.80
2019-01-30T21:12:00.433Z,7.70
2019-01-30T21:14:31.648Z,8.33
2019-01-30T21:17:04.965Z,12.90
2019-01-30T21:19:36.390Z,5.03
2019-01-30T21:22:09.885Z,7.10
2019-01-30T21:24:43.309Z,5.97
2019-01-30T21:27:19.213Z,7.10
2019-01-30T21:29:51.825Z,6.33
2019-01-30T21:32:25.131Z,5.30
2019-01-30T21:34:56.462Z,6.33
2019-01-30T21:37:29.857Z,6.57
2019-01-30T21:40:01.204Z,4.90
2019-01-30T21:42:35.496Z,4.50
2019-01-30T21:45:07.209Z,4.17
2019-01-30T21:47:40.776Z,3.80
2019-01-30T21:50:12.168Z,3.27
2019-01-30T21:52:45.460Z,2.40
2019-01-30T21:55:17.791Z,2.30
2019-01-30T21:57:51.290Z,2.50
2019-01-30T22:00:26.115Z,2.50
2019-01-30T22:02:59.583Z,2.60
2019-01-30T22:05:31.268Z,2.60
2019-01-30T22:08:04.891Z,2.07
2019-01-30T22:10:36.071Z,1.93
2019-01-30T22:13:09.662Z,1.70
2019-01-30T22:15:40.886Z,2.00
2019-01-30T22:18:14.268Z,1.60
2019-01-30T22:20:45.431Z,2.00
2019-01-30T22:23:19.692Z,2.30
2019-01-30T22:25:53.211Z,2.97
2019-01-30T22:28:27.759Z,2.70
2019-01-30T22:30:59.136Z,2.63
2019-01-30T22:33:32.619Z,1.87
2019-01-30T22:36:03.855Z,2.20
2019-01-30T22:38:37.251Z,2.10
2019-01-30T22:41:08.388Z,2.27
2019-01-30T22:43:41.971Z,2.03
2019-01-30T22:46:13.378Z,9.90
2019-01-30T22:48:46.632Z,5.10
2019-01-30T22:51:17.767Z,2.50
2019-01-30T22:53:51.100Z,2.20
2019-01-30T22:56:22.538Z,1.50
2019-01-30T22:58:55.921Z,2.20
2019-01-30T23:01:31.973Z,1.53
2019-01-30T23:04:16.820Z,2.30
2019-01-30T23:06:59.150Z,1.47
2019-01-30T23:10:06.610Z,1.47
2019-01-30T23:12:43.861Z,2.13
2019-01-30T23:15:20.154Z,2.60
2019-01-30T23:18:16.096Z,1.83
2019-01-30T23:20:51.599Z,2.10
2019-01-30T23:23:32.825Z,1.80
2019-01-30T23:26:12.335Z,1.90
2019-01-30T23:29:15.139Z,1.80
2019-01-30T23:32:14.781Z,2.40
2019-01-30T23:35:12.437Z,1.70
2019-01-30T23:38:13.839Z,1.60
2019-01-30T23:40:53.810Z,1.70
2019-01-30T23:43:37.216Z,1.93
2019-01-30T23:46:25.104Z,1.23
2019-01-30T23:49:20.391Z,1.40
2019-01-30T23:52:11.612Z,1.90
2019-01-30T23:55:02.789Z,1.97
2019-01-30T23:57:52.701Z,1.80
